Time;durP1;ratioP1;P1;durP2;ratioP2;P2;SDS_P1;SDS_P2;PMS_P1;PMS_P2;Temp;Humidity;BMP_temperature;BMP_pressure;BME280_temperature;BME280_humidity;BME280_pressure;Samples;Min_cycle;Max_cycle;Signal;HPM_P1;HPM_P2
2022/05/12 00:00:20;;;;;;;3.15;2.00;;;;;;;;;;5032909;28;20444;-70
2022/05/12 00:02:46;;;;;;;3.50;1.60;;;;;;;;;;5032733;28;20053;-70
2022/05/12 00:05:13;;;;;;;1.85;1.52;;;;;;;;;;5032964;28;20067;-70
2022/05/12 00:07:44;;;;;;;4.43;1.85;;;;;;;;;;5032843;28;20057;-70
2022/05/12 00:10:13;;;;;;;3.25;1.83;;;;;;;;;;5032765;28;20125;-70
2022/05/12 00:12:40;;;;;;;2.80;1.85;;;;;;;;;;5032295;28;20065;-70
2022/05/12 00:15:11;;;;;;;3.45;1.65;;;;;;;;;;5032314;28;20051;-70
2022/05/12 00:17:38;;;;;;;2.97;1.83;;;;;;;;;;5033085;28;20132;-70
2022/05/12 00:20:06;;;;;;;1.65;1.52;;;;;;;;;;5032627;28;20463;-70
2022/05/12 00:22:32;;;;;;;3.33;1.95;;;;;;;;;;5032027;28;20053;-70
2022/05/12 00:24:59;;;;;;;3.40;1.80;;;;;;;;;;5032615;28;20053;-70
2022/05/12 00:27:26;;;;;;;3.67;1.75;;;;;;;;;;5032600;28;20052;-70
2022/05/12 00:29:52;;;;;;;2.75;1.77;;;;;;;;;;5032669;28;20046;-70
2022/05/12 00:32:19;;;;;;;4.75;1.95;;;;;;;;;;5032220;28;20045;-70
2022/05/12 00:34:46;;;;;;;4.30;2.03;;;;;;;;;;5032194;28;20053;-70
2022/05/12 00:37:13;;;;;;;3.72;1.90;;;;;;;;;;5032272;28;20504;-70
2022/05/12 00:39:40;;;;;;;1.65;1.55;;;;;;;;;;5032184;28;20060;-70
2022/05/12 00:42:07;;;;;;;3.25;1.85;;;;;;;;;;5032010;28;20500;-70
2022/05/12 00:44:33;;;;;;;2.38;1.83;;;;;;;;;;5032500;28;20049;-70
2022/05/12 00:47:00;;;;;;;4.45;2.42;;;;;;;;;;5032251;28;20064;-70
2022/05/12 00:49:45;;;;;;;1.75;1.65;;;;;;;;;;5031951;28;20065;-70
2022/05/12 00:52:18;;;;;;;2.78;2.22;;;;;;;;;;5031031;28;20423;-70
2022/05/12 00:54:46;;;;;;;4.55;1.98;;;;;;;;;;5030690;28;20053;-70
2022/05/12 00:57:16;;;;;;;3.20;1.98;;;;;;;;;;5030884;28;20042;-70
2022/05/12 00:59:42;;;;;;;2.80;2.30;;;;;;;;;;5030506;28;20045;-70
2022/05/12 01:02:12;;;;;;;2.78;2.00;;;;;;;;;;5030300;28;20049;-70
2022/05/12 01:04:39;;;;;;;3.58;1.73;;;;;;;;;;5030708;28;20141;-71
2022/05/12 01:07:06;;;;;;;4.45;1.88;;;;;;;;;;5030689;28;20103;-70
2022/05/12 01:09:32;;;;;;;3.03;2.10;;;;;;;;;;5031661;28;20459;-70
2022/05/12 01:11:59;;;;;;;2.28;1.90;;;;;;;;;;5031489;28;20045;-70
2022/05/12 01:14:26;;;;;;;3.05;1.70;;;;;;;;;;5031729;28;20060;-70
2022/05/12 01:16:57;;;;;;;2.63;2.13;;;;;;;;;;5032265;28;20051;-70
2022/05/12 01:19:26;;;;;;;2.17;1.95;;;;;;;;;;5031421;28;20046;-70
2022/05/12 01:21:54;;;;;;;4.20;1.92;;;;;;;;;;5031221;28;20491;-70
2022/05/12 01:24:29;;;;;;;4.15;2.13;;;;;;;;;;5031353;28;20053;-70
2022/05/12 01:26:55;;;;;;;3.28;2.90;;;;;;;;;;5030510;28;20056;-70
2022/05/12 01:29:22;;;;;;;3.17;2.13;;;;;;;;;;5031447;28;20050;-70
2022/05/12 01:31:49;;;;;;;6.60;2.47;;;;;;;;;;5031793;28;20053;-70
2022/05/12 01:34:16;;;;;;;4.15;2.45;;;;;;;;;;5031275;28;20526;-70
2022/05/12 01:36:42;;;;;;;4.10;2.60;;;;;;;;;;5031869;28;20049;-70
2022/05/12 01:39:09;;;;;;;2.38;2.17;;;;;;;;;;5031582;28;20049;-70
2022/05/12 01:41:36;;;;;;;2.20;2.00;;;;;;;;;;5030041;28;20088;-70
2022/05/12 01:44:04;;;;;;;2.60;2.40;;;;;;;;;;5030535;28;20052;-70
2022/05/12 01:46:31;;;;;;;6.20;2.40;;;;;;;;;;5031515;28;20053;-70
2022/05/12 01:48:58;;;;;;;3.42;2.10;;;;;;;;;;5031613;28;20471;-70
2022/05/12 01:51:25;;;;;;;4.28;2.25;;;;;;;;;;5031340;28;20056;-70
2022/05/12 01:53:52;;;;;;;2.20;1.98;;;;;;;;;;5029967;28;20054;-70
2022/05/12 01:56:18;;;;;;;2.70;2.28;;;;;;;;;;5031400;28;20097;-70
2022/05/12 01:58:45;;;;;;;4.43;2.03;;;;;;;;;;5031302;28;20107;-70
2022/05/12 02:01:12;;;;;;;3.55;2.10;;;;;;;;;;5031246;28;20053;-70
2022/05/12 02:03:38;;;;;;;5.00;2.30;;;;;;;;;;5031033;28;20572;-70
2022/05/12 02:06:05;;;;;;;3.08;2.03;;;;;;;;;;5031299;28;20053;-70
2022/05/12 02:08:32;;;;;;;5.47;1.80;;;;;;;;;;5031351;28;20057;-70
2022/05/12 02:10:58;;;;;;;4.07;1.85;;;;;;;;;;5032551;28;20492;-70
2022/05/12 02:13:27;;;;;;;2.95;2.33;;;;;;;;;;5034928;28;20054;-70
2022/05/12 02:15:55;;;;;;;8.07;3.33;;;;;;;;;;5035140;28;20049;-70
2022/05/12 02:18:22;;;;;;;11.82;5.95;;;;;;;;;;5035029;28;20050;-70
2022/05/12 02:20:49;;;;;;;6.75;4.05;;;;;;;;;;5034733;28;20511;-70
2022/05/12 02:23:16;;;;;;;8.43;4.07;;;;;;;;;;5034597;28;20045;-70
2022/05/12 02:25:43;;;;;;;4.15;2.00;;;;;;;;;;4995734;28;20061;-70
2022/05/12 02:28:09;;;;;;;3.28;1.75;;;;;;;;;;5005992;28;20042;-70
2022/05/12 02:30:36;;;;;;;2.28;1.83;;;;;;;;;;5017099;28;20049;-70
2022/05/12 02:33:03;;;;;;;4.43;2.05;;;;;;;;;;5034473;28;20049;-70
2022/05/12 02:35:30;;;;;;;5.20;2.25;;;;;;;;;;5034954;28;20124;-71
2022/05/12 02:37:57;;;;;;;3.50;2.22;;;;;;;;;;5034547;28;20046;-70
2022/05/12 02:40:28;;;;;;;6.25;2.13;;;;;;;;;;5034459;28;20052;-70
2022/05/12 02:42:56;;;;;;;3.78;1.98;;;;;;;;;;5015272;28;20057;-70
2022/05/12 02:45:23;;;;;;;6.85;2.25;;;;;;;;;;5014797;28;20057;-70
2022/05/12 02:47:50;;;;;;;6.18;1.98;;;;;;;;;;5014672;28;20054;-70
2022/05/12 02:50:17;;;;;;;3.35;1.67;;;;;;;;;;5014595;28;20084;-70
2022/05/12 02:52:44;;;;;;;4.82;2.10;;;;;;;;;;5014129;28;20481;-70
2022/05/12 02:55:11;;;;;;;4.65;2.03;;;;;;;;;;5014709;28;20045;-70
2022/05/12 02:57:39;;;;;;;5.80;2.25;;;;;;;;;;5014592;28;20073;-70
2022/05/12 03:00:08;;;;;;;2.80;2.05;;;;;;;;;;5014412;28;20493;-70
2022/05/12 03:02:35;;;;;;;3.25;1.77;;;;;;;;;;5014094;28;20053;-70
2022/05/12 03:05:02;;;;;;;2.00;1.75;;;;;;;;;;5014231;28;20050;-70
2022/05/12 03:07:28;;;;;;;5.97;2.15;;;;;;;;;;5014378;28;20520;-70
2022/05/12 03:09:55;;;;;;;3.83;1.60;;;;;;;;;;5014531;28;20050;-70
2022/05/12 03:12:21;;;;;;;2.53;1.63;;;;;;;;;;5014118;28;20485;-71
2022/05/12 03:14:48;;;;;;;3.47;1.45;;;;;;;;;;5014136;28;20049;-70
2022/05/12 03:17:15;;;;;;;2.45;1.40;;;;;;;;;;5014460;28;20418;-70
2022/05/12 03:19:41;;;;;;;2.53;1.13;;;;;;;;;;5014336;28;20053;-70
2022/05/12 03:22:08;;;;;;;4.40;1.63;;;;;;;;;;5013103;28;20050;-70
2022/05/12 03:24:35;;;;;;;1.58;1.38;;;;;;;;;;5014991;28;20068;-71
2022/05/12 03:27:01;;;;;;;2.95;1.23;;;;;;;;;;5038911;28;20042;-70
2022/05/12 03:29:28;;;;;;;3.63;1.40;;;;;;;;;;5018864;28;20085;-71
2022/05/12 03:31:55;;;;;;;3.60;1.77;;;;;;;;;;5014074;28;20394;-70
2022/05/12 03:34:21;;;;;;;5.85;1.33;;;;;;;;;;5014011;28;20053;-70
2022/05/12 03:36:48;;;;;;;2.20;1.52;;;;;;;;;;5013726;28;20104;-70
2022/05/12 03:39:15;;;;;;;5.63;1.50;;;;;;;;;;5073550;22;20056;-69
2022/05/12 03:41:41;;;;;;;2.70;1.33;;;;;;;;;;5053267;28;20507;-69
2022/05/12 03:46:53;;;;;;;2.97;1.63;;;;;;;;;;5053515;28;20499;-69
2022/05/12 03:49:20;;;;;;;1.80;1.20;;;;;;;;;;5068084;28;20054;-69
2022/05/12 03:51:47;;;;;;;1.17;0.98;;;;;;;;;;5073105;28;20052;-69
2022/05/12 03:54:13;;;;;;;1.50;1.20;;;;;;;;;;5073104;28;20067;-69
2022/05/12 03:56:40;;;;;;;2.67;1.20;;;;;;;;;;5073021;28;20052;-69
2022/05/12 03:59:07;;;;;;;2.17;1.40;;;;;;;;;;5072633;28;20410;-68
2022/05/12 04:01:34;;;;;;;2.50;1.38;;;;;;;;;;5072913;28;20048;-69
2022/05/12 04:04:01;;;;;;;5.22;1.27;;;;;;;;;;5072815;28;20084;-69
2022/05/12 04:06:28;;;;;;;3.65;1.30;;;;;;;;;;5072813;28;20052;-69
2022/05/12 04:08:54;;;;;;;3.25;1.08;;;;;;;;;;5072711;28;20110;-69
2022/05/12 04:11:21;;;;;;;2.03;1.15;;;;;;;;;;5072528;28;20499;-69
2022/05/12 04:13:48;;;;;;;1.67;1.30;;;;;;;;;;5072627;28;20055;-69
2022/05/12 04:16:15;;;;;;;2.88;1.48;;;;;;;;;;5071410;28;20498;-69
2022/05/12 04:18:42;;;;;;;1.73;1.20;;;;;;;;;;5072714;28;20159;-69
2022/05/12 04:21:09;;;;;;;3.25;1.60;;;;;;;;;;5072196;28;20051;-69
2022/05/12 04:23:35;;;;;;;2.90;1.73;;;;;;;;;;5072491;28;20045;-69
2022/05/12 04:26:02;;;;;;;3.13;2.00;;;;;;;;;;5072196;28;20055;-69
2022/05/12 04:28:30;;;;;;;2.08;1.70;;;;;;;;;;5072245;28;20048;-69
2022/05/12 04:30:58;;;;;;;4.28;1.65;;;;;;;;;;5072363;28;20110;-69
2022/05/12 04:36:10;;;;;;;1.70;1.25;;;;;;;;;;5072316;28;20056;-69
2022/05/12 04:38:36;;;;;;;4.03;1.30;;;;;;;;;;5072126;28;20048;-69
2022/05/12 04:41:03;;;;;;;6.43;1.77;;;;;;;;;;5071965;28;20490;-70
2022/05/12 04:43:30;;;;;;;2.45;1.50;;;;;;;;;;5072105;28;20113;-69
2022/05/12 04:45:56;;;;;;;3.60;1.83;;;;;;;;;;5072142;28;20052;-69
2022/05/12 04:48:24;;;;;;;3.75;1.70;;;;;;;;;;5071999;28;20048;-69
2022/05/12 04:50:51;;;;;;;3.90;1.60;;;;;;;;;;5071997;28;20503;-69
2022/05/12 04:53:17;;;;;;;2.75;1.40;;;;;;;;;;5071974;28;20121;-69
2022/05/12 04:55:45;;;;;;;3.67;1.40;;;;;;;;;;5071733;28;20080;-69
2022/05/12 04:58:11;;;;;;;6.63;1.73;;;;;;;;;;5071903;28;20131;-69
2022/05/12 05:00:40;;;;;;;1.65;1.40;;;;;;;;;;5071516;28;20048;-69
2022/05/12 05:03:08;;;;;;;2.40;1.02;;;;;;;;;;5072116;28;20044;-69
2022/05/12 05:05:40;;;;;;;5.97;1.60;;;;;;;;;;5068715;28;20090;-70
2022/05/12 05:08:07;;;;;;;3.92;1.30;;;;;;;;;;5071367;28;20045;-69
2022/05/12 05:10:35;;;;;;;3.08;1.40;;;;;;;;;;5071512;28;20049;-69
2022/05/12 05:13:01;;;;;;;3.92;1.40;;;;;;;;;;5071841;28;20511;-69
2022/05/12 05:15:28;;;;;;;1.60;1.20;;;;;;;;;;5072142;28;20668;-69
2022/05/12 05:17:55;;;;;;;2.97;1.40;;;;;;;;;;5072074;28;20045;-70
2022/05/12 05:20:25;;;;;;;1.40;1.30;;;;;;;;;;5071976;28;20075;-69
2022/05/12 05:22:52;;;;;;;3.95;1.20;;;;;;;;;;5071911;28;20048;-70
2022/05/12 05:25:19;;;;;;;1.90;1.40;;;;;;;;;;5071802;28;20059;-69
2022/05/12 05:27:46;;;;;;;2.33;1.77;;;;;;;;;;5071488;28;20041;-69
2022/05/12 05:30:17;;;;;;;2.45;1.15;;;;;;;;;;5071749;28;20465;-68
2022/05/12 05:32:47;;;;;;;2.03;1.38;;;;;;;;;;5070341;28;20127;-68
2022/05/12 05:35:15;;;;;;;2.38;1.23;;;;;;;;;;5071379;28;20098;-69
2022/05/12 05:37:43;;;;;;;1.40;1.30;;;;;;;;;;5071297;28;20044;-69
2022/05/12 05:40:13;;;;;;;3.22;1.35;;;;;;;;;;5071609;28;20055;-69
2022/05/12 05:42:40;;;;;;;4.22;1.20;;;;;;;;;;5071417;28;20072;-69
2022/05/12 05:45:11;;;;;;;2.83;1.55;;;;;;;;;;5071761;28;20048;-69
2022/05/12 05:47:39;;;;;;;3.97;1.50;;;;;;;;;;5075110;28;20079;-69
2022/05/12 05:50:08;;;;;;;3.80;1.45;;;;;;;;;;5073378;28;20074;-69
2022/05/12 05:55:20;;;;;;;3.08;1.17;;;;;;;;;;5075595;28;20552;-68
2022/05/12 05:57:47;;;;;;;3.38;1.20;;;;;;;;;;5072951;28;20048;-67
2022/05/12 06:00:15;;;;;;;2.35;1.13;;;;;;;;;;5073251;28;20071;-68
2022/05/12 06:02:42;;;;;;;3.65;1.17;;;;;;;;;;5072981;28;20140;-67
2022/05/12 06:05:09;;;;;;;1.58;1.20;;;;;;;;;;5074081;28;20549;-68
2022/05/12 06:07:38;;;;;;;4.38;1.27;;;;;;;;;;5072920;28;20477;-67
2022/05/12 06:10:06;;;;;;;2.05;0.90;;;;;;;;;;5072634;28;20056;-66
2022/05/12 06:12:33;;;;;;;2.15;1.30;;;;;;;;;;5072678;28;20049;-67
2022/05/12 06:15:00;;;;;;;2.30;1.42;;;;;;;;;;5073094;28;20052;-67
2022/05/12 06:17:26;;;;;;;2.55;1.10;;;;;;;;;;5073107;28;20194;-67
2022/05/12 06:19:54;;;;;;;2.00;1.30;;;;;;;;;;5072854;28;20057;-67
2022/05/12 06:22:21;;;;;;;5.45;1.25;;;;;;;;;;5072729;28;20422;-67
2022/05/12 06:24:49;;;;;;;1.60;0.98;;;;;;;;;;5072369;28;20067;-67
2022/05/12 06:27:19;;;;;;;4.30;1.08;;;;;;;;;;5072492;28;20053;-67
2022/05/12 06:29:47;;;;;;;4.18;1.40;;;;;;;;;;5072540;28;20082;-67
2022/05/12 06:32:15;;;;;;;1.45;1.10;;;;;;;;;;5072413;28;20503;-67
2022/05/12 06:34:42;;;;;;;2.95;1.02;;;;;;;;;;5072593;28;20127;-67
2022/05/12 06:37:10;;;;;;;2.08;1.00;;;;;;;;;;5071941;28;20098;-67
2022/05/12 06:39:37;;;;;;;4.28;1.27;;;;;;;;;;5072233;28;20139;-67
2022/05/12 06:42:04;;;;;;;1.58;0.90;;;;;;;;;;5072473;28;20040;-67
2022/05/12 06:44:31;;;;;;;2.70;1.00;;;;;;;;;;5072550;28;20048;-66
2022/05/12 06:46:58;;;;;;;6.18;1.10;;;;;;;;;;5072188;28;20059;-67
2022/05/12 06:49:25;;;;;;;2.80;1.00;;;;;;;;;;5071688;28;20492;-67
2022/05/12 06:51:52;;;;;;;3.08;1.27;;;;;;;;;;5072163;28;20143;-68
2022/05/12 06:54:19;;;;;;;3.33;1.23;;;;;;;;;;5071527;28;20058;-67
2022/05/12 06:56:45;;;;;;;2.90;1.70;;;;;;;;;;5073976;28;20465;-67
2022/05/12 06:59:12;;;;;;;3.35;1.20;;;;;;;;;;5074048;28;20106;-68
2022/05/12 07:01:38;;;;;;;1.38;0.95;;;;;;;;;;5073992;28;20525;-67
2022/05/12 07:04:05;;;;;;;3.65;1.00;;;;;;;;;;5074127;28;20053;-66
2022/05/12 07:06:32;;;;;;;1.60;0.88;;;;;;;;;;5059980;28;20048;-66
2022/05/12 07:08:59;;;;;;;1.45;0.98;;;;;;;;;;5063722;28;20480;-65
2022/05/12 07:11:25;;;;;;;2.97;1.00;;;;;;;;;;5062294;28;20057;-63
2022/05/12 07:13:52;;;;;;;4.50;1.10;;;;;;;;;;5061612;28;20048;-65
2022/05/12 07:16:20;;;;;;;2.55;0.90;;;;;;;;;;5059939;28;20064;-66
2022/05/12 07:18:48;;;;;;;2.47;1.00;;;;;;;;;;5059439;28;20071;-65
2022/05/12 07:26:49;;;;;;;3.15;1.38;;;;;;;;;;5061551;28;20052;-66
2022/05/12 07:29:18;;;;;;;1.48;0.82;;;;;;;;;;5060961;28;20052;-66
2022/05/12 07:31:47;;;;;;;2.40;1.08;;;;;;;;;;5059490;28;20045;-66
2022/05/12 07:34:14;;;;;;;2.92;0.90;;;;;;;;;;5059979;28;20503;-67
2022/05/12 07:36:44;;;;;;;1.25;0.85;;;;;;;;;;5059750;28;20045;-66
2022/05/12 07:39:14;;;;;;;3.45;1.83;;;;;;;;;;5058132;28;20080;-67
2022/05/12 07:41:43;;;;;;;3.38;1.08;;;;;;;;;;5058303;28;20048;-66
2022/05/12 07:44:13;;;;;;;3.55;1.00;;;;;;;;;;5058424;28;20037;-66
2022/05/12 07:50:04;;;;;;;4.95;1.33;;;;;;;;;;4995250;28;20126;-71
2022/05/12 07:52:33;;;;;;;2.15;1.10;;;;;;;;;;5057506;28;20118;-73
2022/05/12 07:55:01;;;;;;;3.45;1.20;;;;;;;;;;5016152;28;20471;-67
2022/05/12 07:57:30;;;;;;;4.75;1.10;;;;;;;;;;5039151;28;20057;-75
2022/05/12 08:00:00;;;;;;;2.13;1.00;;;;;;;;;;5021636;28;20102;-74
2022/05/12 08:02:31;;;;;;;3.13;0.90;;;;;;;;;;5022013;28;20046;-74
2022/05/12 08:05:01;;;;;;;2.50;1.17;;;;;;;;;;5023735;28;20475;-68
2022/05/12 08:07:29;;;;;;;1.27;0.93;;;;;;;;;;5038453;28;20060;-68
2022/05/12 08:09:57;;;;;;;3.15;1.25;;;;;;;;;;5041124;28;20045;-68
2022/05/12 08:12:24;;;;;;;2.33;0.98;;;;;;;;;;5038869;28;20048;-69
2022/05/12 08:14:51;;;;;;;2.63;1.15;;;;;;;;;;5038742;28;20057;-68
2022/05/12 08:17:18;;;;;;;1.10;1.00;;;;;;;;;;5039461;28;20103;-68
2022/05/12 08:19:44;;;;;;;3.67;1.15;;;;;;;;;;5038113;28;20140;-68
2022/05/12 08:22:11;;;;;;;5.03;1.20;;;;;;;;;;5039883;28;20333;-68
2022/05/12 08:24:41;;;;;;;2.40;1.25;;;;;;;;;;5041919;28;20045;-74
2022/05/12 08:27:13;;;;;;;1.88;1.20;;;;;;;;;;5017409;28;20049;-75
2022/05/12 08:29:41;;;;;;;1.83;1.02;;;;;;;;;;5032975;28;20059;-74
2022/05/12 08:32:08;;;;;;;3.20;1.40;;;;;;;;;;5018848;28;20057;-68
2022/05/12 08:34:45;;;;;;;1.65;1.13;;;;;;;;;;5038342;28;20500;-74
2022/05/12 08:37:15;;;;;;;3.15;1.30;;;;;;;;;;5031336;28;20041;-74
2022/05/12 08:39:46;;;;;;;5.07;1.30;;;;;;;;;;5046709;28;20514;-73
2022/05/12 08:42:25;;;;;;;3.60;1.42;;;;;;;;;;5037965;28;20052;-74
2022/05/12 08:44:54;;;;;;;2.22;1.65;;;;;;;;;;5042253;28;20062;-73
2022/05/12 08:47:28;;;;;;;2.53;1.30;;;;;;;;;;5022816;28;20060;-73
2022/05/12 08:49:55;;;;;;;;;;;;;;;;;;5020308;28;20136;-74
2022/05/12 08:52:24;;;;;;;3.20;1.52;;;;;;;;;;5021990;28;19921;-74
2022/05/12 08:54:58;;;;;;;2.20;1.15;;;;;;;;;;5038274;28;20522;-73
2022/05/12 08:57:50;;;;;;;2.25;1.40;;;;;;;;;;5039457;28;20060;-69
2022/05/12 09:00:18;;;;;;;3.88;1.60;;;;;;;;;;5042052;28;20043;-73
2022/05/12 09:03:18;;;;;;;3.72;1.45;;;;;;;;;;5035388;28;20136;-72
2022/05/12 09:06:16;;;;;;;4.07;1.48;;;;;;;;;;5023949;28;20045;-73
2022/05/12 09:09:01;;;;;;;3.05;1.30;;;;;;;;;;5030815;28;20049;-72
2022/05/12 09:11:31;;;;;;;6.55;1.55;;;;;;;;;;5039381;28;20053;-77
2022/05/12 09:14:06;;;;;;;5.55;2.10;;;;;;;;;;5036713;28;20160;-76
2022/05/12 09:16:33;;;;;;;3.33;1.70;;;;;;;;;;5031231;28;20133;-68
2022/05/12 09:19:00;;;;;;;2.60;1.40;;;;;;;;;;5042489;28;20053;-69
2022/05/12 09:21:35;;;;;;;3.65;1.75;;;;;;;;;;5038935;28;20068;-68
2022/05/12 09:24:03;;;;;;;6.45;2.00;;;;;;;;;;5041349;28;20045;-68
2022/05/12 09:27:13;;;;;;;2.53;1.30;;;;;;;;;;5053953;28;20053;-68
2022/05/12 09:29:47;;;;;;;3.53;1.50;;;;;;;;;;4977518;28;20054;-68
2022/05/12 09:32:14;;;;;;;4.30;1.60;;;;;;;;;;5031664;28;20053;-68
2022/05/12 09:34:46;;;;;;;2.40;1.60;;;;;;;;;;5038206;28;20124;-67
2022/05/12 09:37:13;;;;;;;2.28;1.52;;;;;;;;;;5040291;28;20050;-68
2022/05/12 09:39:44;;;;;;;4.10;1.77;;;;;;;;;;5043935;28;20050;-68
2022/05/12 09:42:36;;;;;;;3.58;1.58;;;;;;;;;;5036881;28;20060;-68
2022/05/12 09:45:07;;;;;;;4.55;1.20;;;;;;;;;;5038745;28;20492;-71
2022/05/12 09:47:35;;;;;;;3.05;1.17;;;;;;;;;;5027716;28;20508;-71
2022/05/12 09:50:28;;;;;;;1.80;1.35;;;;;;;;;;5038010;28;20060;-69
2022/05/12 09:52:58;;;;;;;5.20;1.30;;;;;;;;;;5036794;28;20068;-74
2022/05/12 09:55:29;;;;;;;4.68;1.70;;;;;;;;;;5040914;28;20053;-71
2022/05/12 09:58:06;;;;;;;5.35;1.48;;;;;;;;;;5038469;28;20048;-71
2022/05/12 10:00:40;;;;;;;4.82;2.25;;;;;;;;;;5052141;28;20057;-70
2022/05/12 10:09:04;;;;;;;2.53;1.85;;;;;;;;;;5040415;28;20049;-75
2022/05/12 10:11:55;;;;;;;2.83;1.95;;;;;;;;;;5041743;28;20057;-70
2022/05/12 10:14:44;;;;;;;3.20;1.73;;;;;;;;;;5039583;28;20080;-71
2022/05/12 10:17:20;;;;;;;4.00;1.70;;;;;;;;;;5036304;28;20057;-74
2022/05/12 10:19:47;;;;;;;1.90;1.50;;;;;;;;;;5055077;28;20076;-69
2022/05/12 10:22:17;;;;;;;7.60;2.05;;;;;;;;;;5036060;28;20041;-70
2022/05/12 10:25:05;;;;;;;2.63;2.17;;;;;;;;;;5039039;28;20492;-71
2022/05/12 10:27:53;;;;;;;3.88;1.50;;;;;;;;;;5036451;28;20081;-73
2022/05/12 10:30:22;;;;;;;3.22;1.70;;;;;;;;;;5029851;28;20480;-76
2022/05/12 10:33:05;;;;;;;2.35;1.50;;;;;;;;;;5042201;28;20550;-74
2022/05/12 10:35:46;;;;;;;3.95;1.50;;;;;;;;;;5025211;28;20053;-73
2022/05/12 10:38:38;;;;;;;4.90;1.58;;;;;;;;;;5038972;28;20042;-68
2022/05/12 10:41:29;;;;;;;3.17;1.70;;;;;;;;;;5054085;28;20523;-67
2022/05/12 10:44:05;;;;;;;6.20;1.90;;;;;;;;;;5022253;28;20049;-68
2022/05/12 10:46:38;;;;;;;4.30;1.90;;;;;;;;;;5042272;28;20057;-69
2022/05/12 10:49:29;;;;;;;2.20;1.70;;;;;;;;;;5043251;28;20504;-69
2022/05/12 10:52:19;;;;;;;4.20;1.77;;;;;;;;;;5040545;28;20055;-71
2022/05/12 10:55:10;;;;;;;2.03;1.60;;;;;;;;;;5016691;28;20069;-73
2022/05/12 10:57:47;;;;;;;3.28;1.70;;;;;;;;;;5042157;28;20079;-70
2022/05/12 11:00:55;;;;;;;3.00;1.88;;;;;;;;;;5040895;28;20049;-74
2022/05/12 11:03:51;;;;;;;4.65;1.73;;;;;;;;;;5018096;28;20046;-76
2022/05/12 11:06:25;;;;;;;2.35;1.70;;;;;;;;;;5020189;28;20049;-79
2022/05/12 11:09:34;;;;;;;3.72;1.83;;;;;;;;;;5044864;28;20049;-75
2022/05/12 11:12:29;;;;;;;3.17;1.95;;;;;;;;;;5002077;28;20044;-77
2022/05/12 11:15:08;;;;;;;3.42;1.95;;;;;;;;;;5031856;28;20060;-75
2022/05/12 11:18:02;;;;;;;4.00;1.90;;;;;;;;;;5056358;28;20048;-78
2022/05/12 11:20:38;;;;;;;4.22;2.10;;;;;;;;;;5036981;28;21120;-68
2022/05/12 11:23:13;;;;;;;3.47;1.80;;;;;;;;;;5040822;28;20046;-68
2022/05/12 11:25:49;;;;;;;3.63;1.83;;;;;;;;;;5053989;28;20056;-67
2022/05/12 11:31:27;;;;;;;2.25;1.60;;;;;;;;;;5043868;28;20091;-65
2022/05/12 11:34:06;;;;;;;2.13;1.60;;;;;;;;;;5038387;28;20087;-64
2022/05/12 11:36:53;;;;;;;2.70;1.70;;;;;;;;;;5022865;28;20419;-65
2022/05/12 11:39:37;;;;;;;2.83;2.05;;;;;;;;;;5056904;28;20052;-67
2022/05/12 11:42:20;;;;;;;6.07;2.38;;;;;;;;;;5038951;28;20412;-66
2022/05/12 11:45:01;;;;;;;3.97;2.10;;;;;;;;;;5044523;28;20479;-66
2022/05/12 11:47:56;;;;;;;2.42;1.88;;;;;;;;;;5058973;28;20053;-65
2022/05/12 11:50:42;;;;;;;5.55;2.08;;;;;;;;;;5036453;28;20052;-66
2022/05/12 11:53:21;;;;;;;5.07;2.20;;;;;;;;;;5037973;28;20493;-64
2022/05/12 11:56:01;;;;;;;2.22;2.00;;;;;;;;;;5038956;28;20057;-65
2022/05/12 11:58:42;;;;;;;3.15;1.95;;;;;;;;;;5056158;28;20155;-65
2022/05/12 12:01:21;;;;;;;3.70;2.03;;;;;;;;;;5027058;28;20045;-65
2022/05/12 12:03:54;;;;;;;4.32;2.10;;;;;;;;;;5042016;28;20045;-65
2022/05/12 12:06:51;;;;;;;3.47;1.95;;;;;;;;;;5037034;28;20049;-65
2022/05/12 12:09:49;;;;;;;2.58;2.20;;;;;;;;;;5028773;28;20111;-65
2022/05/12 12:12:41;;;;;;;5.45;2.08;;;;;;;;;;5039109;28;20049;-75
2022/05/12 12:15:09;;;;;;;3.28;2.42;;;;;;;;;;5038880;28;20076;-75
2022/05/12 12:17:38;;;;;;;1.90;1.80;;;;;;;;;;5040489;28;20055;-74
2022/05/12 12:20:05;;;;;;;3.45;1.77;;;;;;;;;;5045471;28;20052;-73
2022/05/12 12:22:35;;;;;;;4.07;1.80;;;;;;;;;;5040816;28;20080;-73
2022/05/12 12:25:37;;;;;;;2.67;1.73;;;;;;;;;;5042018;28;20049;-73
2022/05/12 12:28:24;;;;;;;5.50;1.80;;;;;;;;;;5045562;28;20095;-77
2022/05/12 12:30:58;;;;;;;4.35;1.90;;;;;;;;;;5042287;28;20060;-77
2022/05/12 12:33:25;;;;;;;;;;;;;;;;;;5047081;28;20053;-77
2022/05/12 12:36:05;;;;;;;4.10;1.70;;;;;;;;;;5038189;28;19944;-77
2022/05/12 12:38:47;;;;;;;3.15;1.70;;;;;;;;;;5053863;28;20053;-76
2022/05/12 12:41:20;;;;;;;2.70;1.60;;;;;;;;;;5040551;28;20053;-79
2022/05/12 12:43:55;;;;;;;3.70;1.90;;;;;;;;;;5041567;28;20132;-78
2022/05/12 12:46:51;;;;;;;3.42;1.48;;;;;;;;;;5019852;28;20056;-76
2022/05/12 12:49:46;;;;;;;4.18;1.67;;;;;;;;;;5040258;28;20511;-75
2022/05/12 12:52:14;;;;;;;5.20;1.77;;;;;;;;;;5038661;28;20511;-75
2022/05/12 12:58:01;;;;;;;5.43;1.88;;;;;;;;;;5037985;28;21133;-77
2022/05/12 13:00:34;;;;;;;3.17;1.50;;;;;;;;;;5039869;28;20056;-77
2022/05/12 13:03:51;;;;;;;3.47;1.75;;;;;;;;;;5025833;28;20045;-77
2022/05/12 13:06:36;;;;;;;4.68;1.70;;;;;;;;;;5052964;28;20504;-76
2022/05/12 13:17:06;;;;;;;3.05;1.92;;;;;;;;;;5039227;28;20067;-66
2022/05/12 13:19:37;;;;;;;1.60;1.50;;;;;;;;;;5047502;28;20053;-66
2022/05/12 13:22:04;;;;;;;2.72;1.80;;;;;;;;;;5040782;28;20420;-65
2022/05/12 13:24:32;;;;;;;1.85;1.60;;;;;;;;;;5036775;28;20057;-65
2022/05/12 13:27:00;;;;;;;4.45;1.73;;;;;;;;;;5036357;28;20107;-65
2022/05/12 13:29:37;;;;;;;2.60;2.17;;;;;;;;;;5038292;28;20049;-65
2022/05/12 13:32:07;;;;;;;4.28;2.25;;;;;;;;;;5039316;28;20059;-66
2022/05/12 13:34:35;;;;;;;3.35;1.88;;;;;;;;;;5037147;28;20488;-65
2022/05/12 13:37:13;;;;;;;5.57;1.88;;;;;;;;;;5036627;28;20057;-64
2022/05/12 13:39:51;;;;;;;3.45;2.00;;;;;;;;;;5037988;28;20053;-64
2022/05/12 13:42:25;;;;;;;2.72;1.77;;;;;;;;;;5038458;28;20512;-64
2022/05/12 13:44:55;;;;;;;4.22;1.85;;;;;;;;;;5058277;28;20478;-64
2022/05/12 13:47:36;;;;;;;3.72;2.00;;;;;;;;;;5056655;28;20528;-64
2022/05/12 13:50:09;;;;;;;4.25;1.77;;;;;;;;;;5035945;28;20045;-64
2022/05/12 13:52:47;;;;;;;4.32;2.42;;;;;;;;;;5040433;28;20049;-64
2022/05/12 13:55:28;;;;;;;1.80;1.70;;;;;;;;;;5047924;28;20060;-64
2022/05/12 13:57:54;;;;;;;3.63;2.30;;;;;;;;;;5046153;28;20057;-64
2022/05/12 14:00:36;;;;;;;6.45;2.30;;;;;;;;;;5031223;28;20107;-64
2022/05/12 14:03:30;;;;;;;4.03;1.60;;;;;;;;;;5036829;28;20053;-64
2022/05/12 14:06:11;;;;;;;3.05;1.63;;;;;;;;;;5049813;28;20500;-64
2022/05/12 14:08:37;;;;;;;4.70;1.70;;;;;;;;;;5055000;28;20485;-64
2022/05/12 14:11:11;;;;;;;2.10;1.85;;;;;;;;;;5055016;28;20057;-64
2022/05/12 14:19:42;;;;;;;5.03;1.88;;;;;;;;;;5053125;28;20045;-64
2022/05/12 14:22:11;;;;;;;3.78;1.85;;;;;;;;;;5054226;28;20049;-64
2022/05/12 14:24:42;;;;;;;3.40;2.00;;;;;;;;;;5054930;28;20044;-64
2022/05/12 14:27:12;;;;;;;3.42;1.70;;;;;;;;;;5055119;28;20049;-64
2022/05/12 14:29:40;;;;;;;3.33;2.13;;;;;;;;;;5054879;28;20049;-64
2022/05/12 14:32:08;;;;;;;3.40;1.88;;;;;;;;;;5054707;28;20053;-64
2022/05/12 14:34:34;;;;;;;1.80;1.70;;;;;;;;;;5053385;28;20099;-64
2022/05/12 14:37:02;;;;;;;4.63;2.28;;;;;;;;;;5054676;28;20522;-64
2022/05/12 14:39:30;;;;;;;4.95;1.95;;;;;;;;;;5054514;28;20049;-65
2022/05/12 14:41:56;;;;;;;2.95;1.83;;;;;;;;;;5046011;28;20083;-64
2022/05/12 14:44:24;;;;;;;4.00;2.17;;;;;;;;;;5034588;28;20056;-64
2022/05/12 14:46:52;;;;;;;2.78;2.00;;;;;;;;;;5034668;28;20049;-63
2022/05/12 14:49:27;;;;;;;4.07;2.08;;;;;;;;;;5033352;28;20129;-64
2022/05/12 14:51:54;;;;;;;4.00;2.10;;;;;;;;;;5033402;28;20763;-64
2022/05/12 14:54:20;;;;;;;7.85;2.25;;;;;;;;;;5033344;28;20115;-65
2022/05/12 14:56:47;;;;;;;4.47;1.80;;;;;;;;;;5034483;28;20132;-65
2022/05/12 14:59:13;;;;;;;6.22;2.28;;;;;;;;;;5035340;28;20049;-65
2022/05/12 15:01:41;;;;;;;3.40;2.30;;;;;;;;;;5054066;28;20053;-65
2022/05/12 15:04:08;;;;;;;3.67;2.20;;;;;;;;;;5052827;28;20048;-64
2022/05/12 15:06:34;;;;;;;3.05;2.20;;;;;;;;;;5053233;28;20056;-65
2022/05/12 15:09:01;;;;;;;2.92;2.00;;;;;;;;;;5052946;28;20053;-64
2022/05/12 15:11:28;;;;;;;2.35;2.03;;;;;;;;;;5053999;28;20045;-65
2022/05/12 15:13:55;;;;;;;3.30;2.17;;;;;;;;;;5053953;28;20053;-65
2022/05/12 15:16:22;;;;;;;5.45;2.47;;;;;;;;;;5053981;28;20049;-64
2022/05/12 15:18:51;;;;;;;3.83;1.80;;;;;;;;;;5053601;28;20060;-65
2022/05/12 15:21:17;;;;;;;4.80;2.08;;;;;;;;;;5053740;28;20049;-63
2022/05/12 15:23:44;;;;;;;2.17;1.98;;;;;;;;;;5053956;28;20083;-66
2022/05/12 15:26:12;;;;;;;2.20;2.00;;;;;;;;;;5054041;28;20416;-74
2022/05/12 15:28:39;;;;;;;2.88;2.28;;;;;;;;;;5037176;28;20491;-64
2022/05/12 15:31:06;;;;;;;4.30;2.20;;;;;;;;;;5053568;28;20049;-64
2022/05/12 15:33:33;;;;;;;3.58;1.90;;;;;;;;;;5053881;28;20103;-64
2022/05/12 15:36:00;;;;;;;5.53;2.33;;;;;;;;;;5053622;28;20045;-64
2022/05/12 15:38:27;;;;;;;9.13;2.15;;;;;;;;;;5052253;28;20095;-64
2022/05/12 15:40:54;;;;;;;4.03;2.45;;;;;;;;;;5052013;28;20481;-65
2022/05/12 15:43:21;;;;;;;4.90;1.98;;;;;;;;;;5042640;28;20102;-67
2022/05/12 15:45:48;;;;;;;7.50;2.97;;;;;;;;;;5054011;28;20045;-66
2022/05/12 15:48:18;;;;;;;4.05;2.20;;;;;;;;;;5053172;28;20049;-67
2022/05/12 15:50:46;;;;;;;3.55;1.80;;;;;;;;;;5053243;28;20053;-66